sensor_id;sensor_type;location;lat;lon;timestamp;pressure;altitude;pressure_sealevel;temperature;humidity
48200;BME280;33990;44.602;10.976;2023-10-09T00:00:15;101685.44;;;24.71;53.70
48200;BME280;33990;44.602;10.976;2023-10-09T00:03:01;101690.00;;;24.70;53.45
48200;BME280;33990;44.602;10.976;2023-10-09T00:05:31;101688.13;;;24.71;53.37
48200;BME280;33990;44.602;10.976;2023-10-09T00:08:15;101690.00;;;24.70;53.73
48200;BME280;33990;44.602;10.976;2023-10-09T00:10:59;101679.31;;;24.69;53.58
48200;BME280;33990;44.602;10.976;2023-10-09T00:13:41;101683.72;;;24.70;53.53
48200;BME280;33990;44.602;10.976;2023-10-09T00:16:25;101687.44;;;24.69;53.43
48200;BME280;33990;44.602;10.976;2023-10-09T00:19:04;101686.44;;;24.70;53.65
48200;BME280;33990;44.602;10.976;2023-10-09T00:21:48;101685.59;;;24.69;53.47
48200;BME280;33990;44.602;10.976;2023-10-09T00:24:16;101686.44;;;24.70;53.46
48200;BME280;33990;44.602;10.976;2023-10-09T00:26:54;101673.91;;;24.69;53.65
48200;BME280;33990;44.602;10.976;2023-10-09T00:29:50;101669.34;;;24.69;53.51
48200;BME280;33990;44.602;10.976;2023-10-09T00:32:22;101677.47;;;24.69;53.59
48200;BME280;33990;44.602;10.976;2023-10-09T00:34:54;101680.34;;;24.67;53.43
48200;BME280;33990;44.602;10.976;2023-10-09T00:37:25;101677.63;;;24.67;53.55
48200;BME280;33990;44.602;10.976;2023-10-09T00:39:55;101679.31;;;24.69;53.64
48200;BME280;33990;44.602;10.976;2023-10-09T00:42:24;101684.75;;;24.69;53.43
48200;BME280;33990;44.602;10.976;2023-10-09T00:45:00;101677.47;;;24.69;53.76
48200;BME280;33990;44.602;10.976;2023-10-09T00:47:32;101673.06;;;24.68;53.45
48200;BME280;33990;44.602;10.976;2023-10-09T00:50:08;101676.63;;;24.69;53.49
48200;BME280;33990;44.602;10.976;2023-10-09T00:52:52;101668.50;;;24.69;53.63
48200;BME280;33990;44.602;10.976;2023-10-09T00:55:21;101684.75;;;24.69;53.66
48200;BME280;33990;44.602;10.976;2023-10-09T00:57:55;101695.56;;;24.69;53.52
48200;BME280;33990;44.602;10.976;2023-10-09T01:00:27;101694.72;;;24.68;53.50
48200;BME280;33990;44.602;10.976;2023-10-09T01:03:17;101692.00;;;24.68;53.67
48200;BME280;33990;44.602;10.976;2023-10-09T01:05:51;101698.28;;;24.69;53.17
48200;BME280;33990;44.602;10.976;2023-10-09T01:08:39;101687.72;;;24.65;53.11
48200;BME280;33990;44.602;10.976;2023-10-09T01:11:11;101681.19;;;24.68;53.27
48200;BME280;33990;44.602;10.976;2023-10-09T01:13:49;101673.19;;;24.66;53.09
48200;BME280;33990;44.602;10.976;2023-10-09T01:16:23;101675.75;;;24.68;53.10
48200;BME280;33990;44.602;10.976;2023-10-09T01:18:55;101671.19;;;24.69;53.30
48200;BME280;33990;44.602;10.976;2023-10-09T01:21:26;101673.19;;;24.66;53.16
48200;BME280;33990;44.602;10.976;2023-10-09T01:23:54;101669.50;;;24.67;53.09
48200;BME280;33990;44.602;10.976;2023-10-09T01:26:37;101660.50;;;24.67;53.44
48200;BME280;33990;44.602;10.976;2023-10-09T01:29:19;101664.09;;;24.67;53.39
48200;BME280;33990;44.602;10.976;2023-10-09T01:34:25;101656.94;;;24.66;53.47
48200;BME280;33990;44.602;10.976;2023-10-09T01:37:07;101663.19;;;24.67;52.97
48200;BME280;33990;44.602;10.976;2023-10-09T01:39:57;101657.78;;;24.67;53.39
48200;BME280;33990;44.602;10.976;2023-10-09T01:42:26;101660.50;;;24.67;53.54
48200;BME280;33990;44.602;10.976;2023-10-09T01:44:56;101658.66;;;24.67;53.28
48200;BME280;33990;44.602;10.976;2023-10-09T01:47:38;101653.25;;;24.67;53.48
48200;BME280;33990;44.602;10.976;2023-10-09T01:50:06;101650.66;;;24.66;53.54
48200;BME280;33990;44.602;10.976;2023-10-09T01:52:54;101654.22;;;24.66;53.49
48200;BME280;33990;44.602;10.976;2023-10-09T01:55:22;101651.53;;;24.66;53.52
48200;BME280;33990;44.602;10.976;2023-10-09T01:58:07;101648.81;;;24.66;53.50
48200;BME280;33990;44.602;10.976;2023-10-09T02:00:54;101643.41;;;24.66;53.20
48200;BME280;33990;44.602;10.976;2023-10-09T02:03:23;101646.09;;;24.66;53.37
48200;BME280;33990;44.602;10.976;2023-10-09T02:05:53;101647.97;;;24.66;53.21
48200;BME280;33990;44.602;10.976;2023-10-09T02:08:21;101651.53;;;24.66;53.13
48200;BME280;33990;44.602;10.976;2023-10-09T02:10:55;101648.97;;;24.65;53.02
48200;BME280;33990;44.602;10.976;2023-10-09T02:13:23;101646.25;;;24.65;53.23
48200;BME280;33990;44.602;10.976;2023-10-09T02:15:57;101657.94;;;24.65;53.39
48200;BME280;33990;44.602;10.976;2023-10-09T02:18:42;101653.38;;;24.66;53.37
48200;BME280;33990;44.602;10.976;2023-10-09T02:21:23;101659.66;;;24.66;53.27
48200;BME280;33990;44.602;10.976;2023-10-09T02:24:02;101649.81;;;24.65;53.25
48200;BME280;33990;44.602;10.976;2023-10-09T02:26:35;101652.38;;;24.67;53.00
48200;BME280;33990;44.602;10.976;2023-10-09T02:29:05;101657.94;;;24.65;53.13
48200;BME280;33990;44.602;10.976;2023-10-09T02:31:36;101665.06;;;24.66;52.91
48200;BME280;33990;44.602;10.976;2023-10-09T02:34:08;101666.91;;;24.66;52.95
48200;BME280;33990;44.602;10.976;2023-10-09T02:36:38;101671.47;;;24.65;52.78
48200;BME280;33990;44.602;10.976;2023-10-09T02:39:09;101666.06;;;24.65;53.03
48200;BME280;33990;44.602;10.976;2023-10-09T02:41:55;101658.78;;;24.66;53.02
48200;BME280;33990;44.602;10.976;2023-10-09T02:44:29;101665.22;;;24.65;52.99
48200;BME280;33990;44.602;10.976;2023-10-09T02:47:06;101667.94;;;24.65;53.07
48200;BME280;33990;44.602;10.976;2023-10-09T02:49:39;101669.78;;;24.64;52.96
48200;BME280;33990;44.602;10.976;2023-10-09T02:52:07;101671.47;;;24.65;52.84
48200;BME280;33990;44.602;10.976;2023-10-09T02:54:35;101676.06;;;24.65;52.90
48200;BME280;33990;44.602;10.976;2023-10-09T02:57:03;101670.63;;;24.65;52.88
48200;BME280;33990;44.602;10.976;2023-10-09T02:59:43;101671.47;;;24.65;52.77
48200;BME280;33990;44.602;10.976;2023-10-09T03:02:12;101674.19;;;24.65;52.99
48200;BME280;33990;44.602;10.976;2023-10-09T03:04:39;101669.78;;;24.64;52.49
48200;BME280;33990;44.602;10.976;2023-10-09T03:07:09;101667.06;;;24.64;52.50
48200;BME280;33990;44.602;10.976;2023-10-09T03:09:37;101667.06;;;24.64;52.54
48200;BME280;33990;44.602;10.976;2023-10-09T03:12:05;101668.94;;;24.64;52.34
48200;BME280;33990;44.602;10.976;2023-10-09T03:14:37;101667.94;;;24.65;52.58
48200;BME280;33990;44.602;10.976;2023-10-09T03:17:05;101667.19;;;24.63;52.29
48200;BME280;33990;44.602;10.976;2023-10-09T03:19:39;101668.78;;;24.65;52.37
48200;BME280;33990;44.602;10.976;2023-10-09T03:22:08;101668.94;;;24.64;52.32
48200;BME280;33990;44.602;10.976;2023-10-09T03:24:39;101672.50;;;24.64;52.44
48200;BME280;33990;44.602;10.976;2023-10-09T03:27:17;101664.50;;;24.63;52.21
48200;BME280;33990;44.602;10.976;2023-10-09T03:29:45;101667.06;;;24.64;52.30
48200;BME280;33990;44.602;10.976;2023-10-09T03:32:21;101669.78;;;24.64;52.18
48200;BME280;33990;44.602;10.976;2023-10-09T03:34:48;101663.53;;;24.64;52.58
48200;BME280;33990;44.602;10.976;2023-10-09T03:37:19;101661.78;;;24.63;52.31
48200;BME280;33990;44.602;10.976;2023-10-09T03:40:01;101671.66;;;24.64;52.51
48200;BME280;33990;44.602;10.976;2023-10-09T03:42:28;101665.22;;;24.65;52.30
48200;BME280;33990;44.602;10.976;2023-10-09T03:44:57;101672.50;;;24.64;52.46
48200;BME280;33990;44.602;10.976;2023-10-09T03:47:25;101667.94;;;24.65;52.40
48200;BME280;33990;44.602;10.976;2023-10-09T03:49:55;101658.97;;;24.64;52.34
48200;BME280;33990;44.602;10.976;2023-10-09T03:52:23;101661.66;;;24.64;52.20
48200;BME280;33990;44.602;10.976;2023-10-09T03:54:53;101663.38;;;24.65;52.16
48200;BME280;33990;44.602;10.976;2023-10-09T03:57:23;101658.97;;;24.64;52.29
48200;BME280;33990;44.602;10.976;2023-10-09T03:59:51;101658.97;;;24.64;52.32
48200;BME280;33990;44.602;10.976;2023-10-09T04:02:19;101664.38;;;24.64;52.31
48200;BME280;33990;44.602;10.976;2023-10-09T04:04:49;101659.97;;;24.63;52.24
48200;BME280;33990;44.602;10.976;2023-10-09T04:07:18;101658.09;;;24.64;52.25
48200;BME280;33990;44.602;10.976;2023-10-09T04:09:45;101649.13;;;24.63;52.09
48200;BME280;33990;44.602;10.976;2023-10-09T04:12:15;101656.38;;;24.63;52.50
48200;BME280;33990;44.602;10.976;2023-10-09T04:14:53;101655.53;;;24.62;52.15
48200;BME280;33990;44.602;10.976;2023-10-09T04:17:30;101661.78;;;24.63;52.53
48200;BME280;33990;44.602;10.976;2023-10-09T04:20:03;101656.38;;;24.63;52.25
48200;BME280;33990;44.602;10.976;2023-10-09T04:22:46;101654.56;;;24.63;52.26
48200;BME280;33990;44.602;10.976;2023-10-09T04:25:27;101656.53;;;24.61;52.45
48200;BME280;33990;44.602;10.976;2023-10-09T04:28:10;101654.69;;;24.62;52.54
48200;BME280;33990;44.602;10.976;2023-10-09T04:30:46;101658.38;;;24.61;52.27
48200;BME280;33990;44.602;10.976;2023-10-09T04:33:22;101659.25;;;24.61;52.32
48200;BME280;33990;44.602;10.976;2023-10-09T04:36:03;101657.38;;;24.62;52.16
48200;BME280;33990;44.602;10.976;2023-10-09T04:38:43;101654.69;;;24.62;52.37
48200;BME280;33990;44.602;10.976;2023-10-09T04:41:33;101652.13;;;24.60;52.14
48200;BME280;33990;44.602;10.976;2023-10-09T04:44:27;101656.69;;;24.60;52.09
48200;BME280;33990;44.602;10.976;2023-10-09T04:47:03;101652.13;;;24.60;52.31
48200;BME280;33990;44.602;10.976;2023-10-09T04:49:41;101652.13;;;24.60;52.47
48200;BME280;33990;44.602;10.976;2023-10-09T04:52:23;101655.69;;;24.61;52.27
48200;BME280;33990;44.602;10.976;2023-10-09T04:54:57;101656.69;;;24.60;52.17
48200;BME280;33990;44.602;10.976;2023-10-09T04:57:43;101660.25;;;24.60;51.98
48200;BME280;33990;44.602;10.976;2023-10-09T05:00:15;101656.69;;;24.60;52.09
48200;BME280;33990;44.602;10.976;2023-10-09T05:02:59;101661.25;;;24.59;52.17
48200;BME280;33990;44.602;10.976;2023-10-09T05:05:30;101655.84;;;24.59;51.99
48200;BME280;33990;44.602;10.976;2023-10-09T05:08:16;101657.66;;;24.59;52.37
48200;BME280;33990;44.602;10.976;2023-10-09T05:11:03;101656.81;;;24.58;51.94
48200;BME280;33990;44.602;10.976;2023-10-09T05:13:36;101659.53;;;24.58;52.09
48200;BME280;33990;44.602;10.976;2023-10-09T05:16:16;101654.09;;;24.58;52.04
48200;BME280;33990;44.602;10.976;2023-10-09T05:18:55;101659.53;;;24.58;51.89
48200;BME280;33990;44.602;10.976;2023-10-09T05:21:45;101657.66;;;24.59;51.74
48200;BME280;33990;44.602;10.976;2023-10-09T05:24:15;101662.22;;;24.58;51.56
48200;BME280;33990;44.602;10.976;2023-10-09T05:26:51;101667.09;;;24.55;50.50
48200;BME280;33990;44.602;10.976;2023-10-09T05:29:25;101669.09;;;24.53;50.13
48200;BME280;33990;44.602;10.976;2023-10-09T05:31:55;101672.94;;;24.50;49.58
48200;BME280;33990;44.602;10.976;2023-10-09T05:34:26;101675.97;;;24.47;49.01
48200;BME280;33990;44.602;10.976;2023-10-09T05:37:12;101668.13;;;24.44;49.02
48200;BME280;33990;44.602;10.976;2023-10-09T05:39:52;101674.66;;;24.41;48.81
48200;BME280;33990;44.602;10.976;2023-10-09T05:42:34;101669.41;;;24.40;48.65
48200;BME280;33990;44.602;10.976;2023-10-09T05:45:05;101679.50;;;24.38;48.40
48200;BME280;33990;44.602;10.976;2023-10-09T05:47:45;101673.22;;;24.37;48.36
48200;BME280;33990;44.602;10.976;2023-10-09T05:50:34;101676.09;;;24.36;48.41
48200;BME280;33990;44.602;10.976;2023-10-09T05:53:02;101671.81;;;24.33;48.10
48200;BME280;33990;44.602;10.976;2023-10-09T05:55:30;101674.50;;;24.33;48.40
48200;BME280;33990;44.602;10.976;2023-10-09T05:58:16;101680.06;;;24.32;48.30
48200;BME280;33990;44.602;10.976;2023-10-09T06:01:02;101668.53;;;24.30;48.52
48200;BME280;33990;44.602;10.976;2023-10-09T06:03:47;101675.94;;;24.28;48.62
48200;BME280;33990;44.602;10.976;2023-10-09T06:06:34;101680.63;;;24.26;48.80
48200;BME280;33990;44.602;10.976;2023-10-09T06:09:06;101680.63;;;24.26;48.67
48200;BME280;33990;44.602;10.976;2023-10-09T06:11:44;101686.03;;;24.26;48.85
48200;BME280;33990;44.602;10.976;2023-10-09T06:14:38;101683.34;;;24.26;48.58
48200;BME280;33990;44.602;10.976;2023-10-09T06:17:05;101683.34;;;24.26;48.51
48200;BME280;33990;44.602;10.976;2023-10-09T06:19:39;101688.63;;;24.27;48.65
48200;BME280;33990;44.602;10.976;2023-10-09T06:22:12;101682.38;;;24.27;48.54
48200;BME280;33990;44.602;10.976;2023-10-09T06:24:41;101689.31;;;24.29;48.38
48200;BME280;33990;44.602;10.976;2023-10-09T06:27:10;101690.16;;;24.30;48.14
48200;BME280;33990;44.602;10.976;2023-10-09T06:29:39;101687.34;;;24.31;48.12
48200;BME280;33990;44.602;10.976;2023-10-09T06:32:33;101685.34;;;24.33;48.15
48200;BME280;33990;44.602;10.976;2023-10-09T06:35:01;101688.75;;;24.35;47.96
48200;BME280;33990;44.602;10.976;2023-10-09T06:37:49;101691.31;;;24.37;48.04
48200;BME280;33990;44.602;10.976;2023-10-09T06:40:33;101689.44;;;24.37;47.89
48200;BME280;33990;44.602;10.976;2023-10-09T06:43:04;101687.63;;;24.38;47.85
48200;BME280;33990;44.602;10.976;2023-10-09T06:45:45;101684.81;;;24.39;47.76
48200;BME280;33990;44.602;10.976;2023-10-09T06:48:13;101684.66;;;24.41;48.02
48200;BME280;33990;44.602;10.976;2023-10-09T06:53:54;101686.22;;;24.44;47.58
48200;BME280;33990;44.602;10.976;2023-10-09T06:56:23;101685.06;;;24.46;47.79
48200;BME280;33990;44.602;10.976;2023-10-09T06:59:13;101689.50;;;24.47;48.86
48200;BME280;33990;44.602;10.976;2023-10-09T07:01:51;101693.47;;;24.53;48.95
48200;BME280;33990;44.602;10.976;2023-10-09T07:04:37;101697.03;;;24.53;49.19
48200;BME280;33990;44.602;10.976;2023-10-09T07:07:06;101693.31;;;24.54;49.59
48200;BME280;33990;44.602;10.976;2023-10-09T07:09:48;101693.31;;;24.54;49.90
48200;BME280;33990;44.602;10.976;2023-10-09T07:12:33;101697.75;;;24.55;48.59
48200;BME280;33990;44.602;10.976;2023-10-09T07:15:01;101700.97;;;24.59;48.93
48200;BME280;33990;44.602;10.976;2023-10-09T07:17:52;101700.56;;;24.63;49.42
48200;BME280;33990;44.602;10.976;2023-10-09T07:20:19;101704.69;;;24.67;49.32
48200;BME280;33990;44.602;10.976;2023-10-09T07:23:16;101704.53;;;24.69;49.55
48200;BME280;33990;44.602;10.976;2023-10-09T07:25:44;101701.69;;;24.71;49.08
48200;BME280;33990;44.602;10.976;2023-10-09T07:28:22;101698.84;;;24.72;49.03
48200;BME280;33990;44.602;10.976;2023-10-09T07:31:04;101699.53;;;24.74;49.59
48200;BME280;33990;44.602;10.976;2023-10-09T07:33:36;101701.22;;;24.75;49.61
48200;BME280;33990;44.602;10.976;2023-10-09T07:36:39;101701.38;;;24.74;48.99
48200;BME280;33990;44.602;10.976;2023-10-09T07:39:15;101706.25;;;24.70;47.55
48200;BME280;33990;44.602;10.976;2023-10-09T07:41:44;101701.25;;;24.65;47.04
48200;BME280;33990;44.602;10.976;2023-10-09T07:44:23;101703.69;;;24.59;46.83
48200;BME280;33990;44.602;10.976;2023-10-09T07:47:05;101707.69;;;24.55;46.74
48200;BME280;33990;44.602;10.976;2023-10-09T07:49:46;101710.13;;;24.48;46.49
48200;BME280;33990;44.602;10.976;2023-10-09T07:52:21;101713.13;;;24.45;46.54
48200;BME280;33990;44.602;10.976;2023-10-09T07:54:49;101704.59;;;24.40;46.33
48200;BME280;33990;44.602;10.976;2023-10-09T07:57:17;101701.28;;;24.36;46.13
48200;BME280;33990;44.602;10.976;2023-10-09T07:59:44;101702.41;;;24.34;46.03
48200;BME280;33990;44.602;10.976;2023-10-09T08:02:38;101708.13;;;24.31;45.40
48200;BME280;33990;44.602;10.976;2023-10-09T08:05:06;101697.31;;;24.31;45.25
48200;BME280;33990;44.602;10.976;2023-10-09T08:07:34;101701.00;;;24.30;44.88
48200;BME280;33990;44.602;10.976;2023-10-09T08:10:21;101699.28;;;24.29;44.54
48200;BME280;33990;44.602;10.976;2023-10-09T08:12:49;101704.88;;;24.27;44.68
48200;BME280;33990;44.602;10.976;2023-10-09T08:15:17;101702.16;;;24.27;44.22
48200;BME280;33990;44.602;10.976;2023-10-09T08:17:50;101709.44;;;24.27;44.00
48200;BME280;33990;44.602;10.976;2023-10-09T08:20:25;101706.00;;;24.25;43.62
48200;BME280;33990;44.602;10.976;2023-10-09T08:22:54;101701.72;;;24.22;43.70
48200;BME280;33990;44.602;10.976;2023-10-09T08:25:25;101705.41;;;24.21;43.94
48200;BME280;33990;44.602;10.976;2023-10-09T08:27:59;101706.28;;;24.22;44.01
48200;BME280;33990;44.602;10.976;2023-10-09T08:30:47;101705.41;;;24.21;44.08
48200;BME280;33990;44.602;10.976;2023-10-09T08:33:30;101707.13;;;24.22;44.12
48200;BME280;33990;44.602;10.976;2023-10-09T08:36:11;101704.41;;;24.22;44.43
48200;BME280;33990;44.602;10.976;2023-10-09T08:38:42;101704.28;;;24.24;44.11
48200;BME280;33990;44.602;10.976;2023-10-09T08:41:11;101703.44;;;24.23;44.26
48200;BME280;33990;44.602;10.976;2023-10-09T08:43:50;101706.00;;;24.25;44.62
48200;BME280;33990;44.602;10.976;2023-10-09T08:46:20;101702.16;;;24.27;44.54
48200;BME280;33990;44.602;10.976;2023-10-09T08:48:49;101697.59;;;24.28;44.72
48200;BME280;33990;44.602;10.976;2023-10-09T08:51:18;101701.84;;;24.30;44.64
48200;BME280;33990;44.602;10.976;2023-10-09T08:53:47;101707.13;;;24.32;44.68
48200;BME280;33990;44.602;10.976;2023-10-09T08:56:17;101699.88;;;24.32;44.54
48200;BME280;33990;44.602;10.976;2023-10-09T08:58:57;101702.41;;;24.34;44.84
48200;BME280;33990;44.602;10.976;2023-10-09T09:01:25;101695.03;;;24.36;44.56
48200;BME280;33990;44.602;10.976;2023-10-09T09:03:53;101701.16;;;24.38;44.76
48200;BME280;33990;44.602;10.976;2023-10-09T09:06:23;101693.78;;;24.40;44.66
48200;BME280;33990;44.602;10.976;2023-10-09T09:08:51;101689.78;;;24.44;44.58
48200;BME280;33990;44.602;10.976;2023-10-09T09:11:22;101692.31;;;24.46;44.63
48200;BME280;33990;44.602;10.976;2023-10-09T09:14:02;101693.06;;;24.48;44.62
48200;BME280;33990;44.602;10.976;2023-10-09T09:16:34;101687.31;;;24.51;44.70
48200;BME280;33990;44.602;10.976;2023-10-09T09:19:09;101685.34;;;24.53;44.70
48200;BME280;33990;44.602;10.976;2023-10-09T09:21:42;101684.03;;;24.57;44.60
48200;BME280;33990;44.602;10.976;2023-10-09T09:24:11;101677.78;;;24.56;44.52
48200;BME280;33990;44.602;10.976;2023-10-09T09:26:49;101680.06;;;24.61;44.46
48200;BME280;33990;44.602;10.976;2023-10-09T09:29:45;101675.19;;;24.64;45.10
48200;BME280;33990;44.602;10.976;2023-10-09T09:32:29;101677.63;;;24.67;45.01
48200;BME280;33990;44.602;10.976;2023-10-09T09:35:04;101669.50;;;24.67;44.74
48200;BME280;33990;44.602;10.976;2023-10-09T09:37:33;101666.63;;;24.69;44.52
48200;BME280;33990;44.602;10.976;2023-10-09T09:40:21;101665.63;;;24.70;44.57
48200;BME280;33990;44.602;10.976;2023-10-09T09:43:02;101659.19;;;24.71;44.66
48200;BME280;33990;44.602;10.976;2023-10-09T09:45:34;101654.50;;;24.73;44.90
48200;BME280;33990;44.602;10.976;2023-10-09T09:48:03;101652.66;;;24.74;45.00
48200;BME280;33990;44.602;10.976;2023-10-09T09:50:34;101648.06;;;24.74;45.11
48200;BME280;33990;44.602;10.976;2023-10-09T09:53:05;101642.53;;;24.76;44.85
48200;BME280;33990;44.602;10.976;2023-10-09T09:55:37;101637.81;;;24.78;44.97
48200;BME280;33990;44.602;10.976;2023-10-09T09:58:14;101630.53;;;24.78;44.69
48200;BME280;33990;44.602;10.976;2023-10-09T10:00:50;101633.13;;;24.80;44.53
48200;BME280;33990;44.602;10.976;2023-10-09T10:05:54;101629.22;;;24.82;44.10
48200;BME280;33990;44.602;10.976;2023-10-09T10:08:24;101629.97;;;24.84;44.13
48200;BME280;33990;44.602;10.976;2023-10-09T10:11:01;101626.97;;;24.87;43.81
48200;BME280;33990;44.602;10.976;2023-10-09T10:16:13;101624.78;;;24.91;43.45
48200;BME280;33990;44.602;10.976;2023-10-09T10:19:00;101619.22;;;24.92;43.79
48200;BME280;33990;44.602;10.976;2023-10-09T10:21:34;101623.47;;;24.95;43.66
48200;BME280;33990;44.602;10.976;2023-10-09T10:29:45;101612.22;;;25.00;43.44
48200;BME280;33990;44.602;10.976;2023-10-09T10:32:13;101612.06;;;25.01;43.41
48200;BME280;33990;44.602;10.976;2023-10-09T10:40:06;101599.06;;;25.05;43.66
48200;BME280;33990;44.602;10.976;2023-10-09T10:42:53;101590.94;;;25.05;43.78
48200;BME280;33990;44.602;10.976;2023-10-09T10:45:39;101586.19;;;25.07;43.94
48200;BME280;33990;44.602;10.976;2023-10-09T10:48:14;101583.22;;;25.10;43.47
48200;BME280;33990;44.602;10.976;2023-10-09T10:50:57;101575.66;;;25.13;43.12
48200;BME280;33990;44.602;10.976;2023-10-09T10:53:25;101576.50;;;25.14;42.95
48200;BME280;33990;44.602;10.976;2023-10-09T10:56:02;101562.94;;;25.14;43.28
48200;BME280;33990;44.602;10.976;2023-10-09T10:58:43;101560.78;;;25.18;43.20
48200;BME280;33990;44.602;10.976;2023-10-09T11:01:41;101559.78;;;25.19;43.05
48200;BME280;33990;44.602;10.976;2023-10-09T11:04:27;101552.50;;;25.19;43.16
48200;BME280;33990;44.602;10.976;2023-10-09T11:06:58;101545.94;;;25.22;42.88
48200;BME280;33990;44.602;10.976;2023-10-09T11:09:54;101542.06;;;25.24;42.50
48200;BME280;33990;44.602;10.976;2023-10-09T11:15:10;101522.09;;;25.25;42.48
48200;BME280;33990;44.602;10.976;2023-10-09T11:18:04;101521.94;;;25.27;42.24
48200;BME280;33990;44.602;10.976;2023-10-09T11:20:35;101511.78;;;25.29;42.03
48200;BME280;33990;44.602;10.976;2023-10-09T11:23:04;101513.31;;;25.31;42.09
48200;BME280;33990;44.602;10.976;2023-10-09T11:25:39;101508.63;;;25.33;42.14
48200;BME280;33990;44.602;10.976;2023-10-09T11:28:22;101500.31;;;25.35;42.47
48200;BME280;33990;44.602;10.976;2023-10-09T11:31:10;101488.47;;;25.36;42.35
48200;BME280;33990;44.602;10.976;2023-10-09T11:33:49;101491.50;;;25.33;42.32
48200;BME280;33990;44.602;10.976;2023-10-09T11:36:19;101483.69;;;25.30;42.67
48200;BME280;33990;44.602;10.976;2023-10-09T11:38:59;101481.44;;;25.25;42.68
48200;BME280;33990;44.602;10.976;2023-10-09T11:41:45;101477.56;;;25.28;42.22
48200;BME280;33990;44.602;10.976;2023-10-09T11:44:16;101478.72;;;25.25;42.41
48200;BME280;33990;44.602;10.976;2023-10-09T11:47:01;101475.47;;;25.22;42.92
48200;BME280;33990;44.602;10.976;2023-10-09T11:49:55;101474.75;;;25.20;42.95
48200;BME280;33990;44.602;10.976;2023-10-09T11:52:29;101466.81;;;25.18;43.23
48200;BME280;33990;44.602;10.976;2023-10-09T11:55:04;101463.41;;;25.16;43.09
48200;BME280;33990;44.602;10.976;2023-10-09T11:57:42;101450.53;;;25.18;42.61
48200;BME280;33990;44.602;10.976;2023-10-09T12:00:09;101455.97;;;25.18;42.60
48200;BME280;33990;44.602;10.976;2023-10-09T12:02:52;101448.38;;;25.22;42.41
48200;BME280;33990;44.602;10.976;2023-10-09T12:05:19;101443.34;;;25.27;41.84
48200;BME280;33990;44.602;10.976;2023-10-09T12:07:48;101434.19;;;25.28;41.89
48200;BME280;33990;44.602;10.976;2023-10-09T12:10:22;101431.03;;;25.32;42.15
48200;BME280;33990;44.602;10.976;2023-10-09T12:12:53;101426.13;;;25.36;42.13
48200;BME280;33990;44.602;10.976;2023-10-09T12:15:21;101434.66;;;25.41;41.94
48200;BME280;33990;44.602;10.976;2023-10-09T12:17:49;101424.00;;;25.48;41.66
48200;BME280;33990;44.602;10.976;2023-10-09T12:20:17;101415.81;;;25.57;41.48
48200;BME280;33990;44.602;10.976;2023-10-09T12:23:00;101413.16;;;25.65;40.94
48200;BME280;33990;44.602;10.976;2023-10-09T12:25:28;101404.34;;;25.72;40.90
48200;BME280;33990;44.602;10.976;2023-10-09T12:27:59;101403.03;;;25.76;40.40
48200;BME280;33990;44.602;10.976;2023-10-09T12:30:31;101399.47;;;25.75;40.69
48200;BME280;33990;44.602;10.976;2023-10-09T12:32:58;101400.19;;;25.77;40.74
48200;BME280;33990;44.602;10.976;2023-10-09T12:35:26;101393.03;;;25.76;41.41
48200;BME280;33990;44.602;10.976;2023-10-09T12:37:55;101390.47;;;25.75;41.55
48200;BME280;33990;44.602;10.976;2023-10-09T12:40:24;101388.06;;;25.72;41.94
48200;BME280;33990;44.602;10.976;2023-10-09T12:42:51;101386.38;;;25.71;42.21
48200;BME280;33990;44.602;10.976;2023-10-09T12:45:19;101377.56;;;25.69;42.25
48200;BME280;33990;44.602;10.976;2023-10-09T12:47:53;101377.03;;;25.65;42.56
48200;BME280;33990;44.602;10.976;2023-10-09T12:50:26;101370.78;;;25.64;42.44
48200;BME280;33990;44.602;10.976;2023-10-09T12:53:01;101369.59;;;25.67;42.38
48200;BME280;33990;44.602;10.976;2023-10-09T12:55:38;101367.41;;;25.71;42.52
48200;BME280;33990;44.602;10.976;2023-10-09T12:58:11;101361.81;;;25.72;42.40
48200;BME280;33990;44.602;10.976;2023-10-09T13:00:43;101360.66;;;25.75;42.08
48200;BME280;33990;44.602;10.976;2023-10-09T13:03:17;101353.53;;;25.74;42.08
48200;BME280;33990;44.602;10.976;2023-10-09T13:05:47;101349.81;;;25.75;41.95
48200;BME280;33990;44.602;10.976;2023-10-09T13:08:27;101343.53;;;25.74;41.83
48200;BME280;33990;44.602;10.976;2023-10-09T13:11:09;101342.69;;;25.74;41.82
48200;BME280;33990;44.602;10.976;2023-10-09T13:13:40;101337.09;;;25.75;41.93
48200;BME280;33990;44.602;10.976;2023-10-09T13:16:10;101341.66;;;25.75;42.26
48200;BME280;33990;44.602;10.976;2023-10-09T13:21:26;101340.72;;;25.84;41.77
48200;BME280;33990;44.602;10.976;2023-10-09T13:23:54;101329.03;;;25.83;41.94
48200;BME280;33990;44.602;10.976;2023-10-09T13:26:24;101333.59;;;25.83;42.15
48200;BME280;33990;44.602;10.976;2023-10-09T13:29:02;101323.91;;;25.80;42.49
48200;BME280;33990;44.602;10.976;2023-10-09T13:31:31;101324.09;;;25.79;42.55
48200;BME280;33990;44.602;10.976;2023-10-09T13:34:02;101322.41;;;25.78;42.82
48200;BME280;33990;44.602;10.976;2023-10-09T13:36:31;101318.84;;;25.77;42.50
48200;BME280;33990;44.602;10.976;2023-10-09T13:39:02;101311.66;;;25.76;42.73
48200;BME280;33990;44.602;10.976;2023-10-09T13:41:47;101317.09;;;25.76;42.64
48200;BME280;33990;44.602;10.976;2023-10-09T13:44:15;101308.00;;;25.77;42.53
48200;BME280;33990;44.602;10.976;2023-10-09T13:46:43;101312.38;;;25.78;42.79
48200;BME280;33990;44.602;10.976;2023-10-09T13:49:11;101309.34;;;25.81;42.53